Time;durP1;ratioP1;P1;durP2;ratioP2;P2;SDS_P1;SDS_P2;PMS_P1;PMS_P2;Temp;Humidity;BMP_temperature;BMP_pressure;BME280_temperature;BME280_humidity;BME280_pressure;Samples;Min_cycle;Max_cycle;Signal;HPM_P1;HPM_P2
2021/07/26 00:00:23;;;;;;;10.80;5.97;;;640.20;1740.80;;;;;;5091595;28;20024;-76
2021/07/26 00:02:52;;;;;;;8.95;6.53;;;640.20;1715.20;;;;;;5090374;28;20028;-75
2021/07/26 00:05:20;;;;;;;10.05;6.00;;;640.20;1715.20;;;;;;5088772;28;20116;-78
2021/07/26 00:07:46;;;;;;;12.85;6.18;;;640.20;1740.80;;;;;;5089285;28;20047;-76
2021/07/26 00:10:12;;;;;;;9.88;5.28;;;640.10;1740.80;;;;;;5090702;28;20024;-76
2021/07/26 00:12:37;;;;;;;10.13;6.38;;;640.10;1740.80;;;;;;5089919;28;20024;-76
2021/07/26 00:15:06;;;;;;;9.68;5.75;;;640.10;1740.80;;;;;;5094594;28;20081;-78
2021/07/26 00:17:32;;;;;;;10.55;6.70;;;640.00;1715.20;;;;;;5092932;28;20050;-78
2021/07/26 00:19:58;;;;;;;10.55;5.93;;;640.10;1740.80;;;;;;5095053;28;20020;-78
2021/07/26 00:22:23;;;;;;;12.70;6.22;;;640.10;1740.80;;;;;;5094975;28;20050;-77
2021/07/26 00:24:49;;;;;;;12.48;6.10;;;640.00;1740.80;;;;;;5095112;28;20027;-76
2021/07/26 00:27:15;;;;;;;9.45;6.40;;;640.00;1740.80;;;;;;5096518;28;20511;-77
2021/07/26 00:29:41;;;;;;;11.65;5.88;;;640.00;1740.80;;;;;;5095127;28;20028;-77
2021/07/26 00:32:07;;;;;;;7.85;5.38;;;640.00;1740.80;;;;;;5094556;28;20048;-76
2021/07/26 00:34:33;;;;;;;11.60;5.25;;;640.00;1740.80;;;;;;5095075;28;20032;-77
2021/07/26 00:37:01;;;;;;;9.75;6.25;;;640.00;1740.80;;;;;;5095023;28;20477;-76
2021/07/26 00:39:33;;;;;;;8.20;5.40;;;640.00;1740.80;;;;;;5096362;28;20354;-77
2021/07/26 00:42:00;;;;;;;13.82;6.30;;;640.00;1740.80;;;;;;5094273;28;20020;-77
2021/07/26 00:44:28;;;;;;;11.18;6.13;;;615.30;1740.80;;;;;;5093913;28;20090;-79
2021/07/26 00:46:55;;;;;;;11.82;5.88;;;615.30;1740.80;;;;;;5094897;28;20024;-77
2021/07/26 00:49:22;;;;;;;8.95;5.82;;;615.30;1740.80;;;;;;5094617;28;20119;-77
2021/07/26 00:51:55;;;;;;;11.02;6.15;;;615.30;1715.20;;;;;;5091412;28;20028;-78
2021/07/26 00:54:24;;;;;;;9.00;5.78;;;640.00;1715.20;;;;;;5095800;28;20358;-77
2021/07/26 00:56:52;;;;;;;10.90;5.60;;;640.00;1715.20;;;;;;5091687;28;20111;-77
2021/07/26 00:59:18;;;;;;;9.77;5.18;;;640.00;1715.20;;;;;;5094243;28;20146;-77
2021/07/26 01:01:44;;;;;;;8.13;5.68;;;640.00;1715.20;;;;;;5094275;28;20729;-77
2021/07/26 01:04:10;;;;;;;11.40;5.18;;;640.00;1715.20;;;;;;5091514;28;20508;-76
2021/07/26 01:06:37;;;;;;;12.63;5.72;;;640.00;1715.20;;;;;;5094601;28;20117;-76
2021/07/26 01:09:03;;;;;;;11.95;5.63;;;640.00;1715.20;;;;;;5095036;28;20133;-76
2021/07/26 01:11:30;;;;;;;9.13;5.90;;;640.00;1715.20;;;;;;5094802;28;20052;-79
2021/07/26 01:13:56;;;;;;;11.30;5.93;;;640.00;1715.20;;;;;;5093281;28;20020;-79
2021/07/26 01:16:23;;;;;;;11.45;5.55;;;640.00;1715.20;;;;;;5095309;28;20492;-81
2021/07/26 01:18:49;;;;;;;8.75;5.55;;;640.00;1715.20;;;;;;5093902;28;20377;-76
2021/07/26 01:21:17;;;;;;;7.70;5.10;;;640.00;1715.20;;;;;;5094830;28;20055;-77
2021/07/26 01:23:46;;;;;;;12.80;5.30;;;640.00;1715.20;;;;;;5095274;28;20016;-77
2021/07/26 01:26:15;;;;;;;8.88;5.55;;;640.00;1715.20;;;;;;5091919;28;20023;-78
2021/07/26 01:28:43;;;;;;;13.52;5.30;;;640.00;1689.60;;;;;;5093967;28;20036;-78
2021/07/26 01:31:12;;;;;;;11.63;5.50;;;615.30;1715.20;;;;;;5093928;28;20013;-77
2021/07/26 01:33:39;;;;;;;12.60;6.00;;;640.00;1715.20;;;;;;5095024;28;20031;-77
2021/07/26 01:36:06;;;;;;;9.68;5.43;;;640.00;1715.20;;;;;;5095076;28;20024;-78
2021/07/26 01:38:31;;;;;;;11.95;5.93;;;615.30;1715.20;;;;;;5092457;28;20031;-76
2021/07/26 01:41:02;;;;;;;10.63;5.80;;;615.30;1715.20;;;;;;5093292;28;20047;-78
2021/07/26 01:43:38;;;;;;;8.00;5.18;;;615.30;1715.20;;;;;;5095116;28;20016;-77
2021/07/26 01:46:29;;;;;;;9.45;5.22;;;615.30;1715.20;;;;;;5095117;28;20016;-78
2021/07/26 01:49:06;;;;;;;8.95;5.45;;;615.30;1715.20;;;;;;5093490;28;20089;-77
2021/07/26 01:51:39;;;;;;;9.05;5.90;;;615.30;1715.20;;;;;;5090473;28;20032;-78
2021/07/26 01:54:05;;;;;;;8.15;5.20;;;615.30;1689.60;;;;;;5092908;28;20373;-77
2021/07/26 01:56:32;;;;;;;9.40;5.32;;;615.10;1715.20;;;;;;5094380;28;20020;-77
2021/07/26 01:59:00;;;;;;;11.40;5.43;;;615.30;1689.60;;;;;;5093320;28;20480;-80
2021/07/26 02:01:26;;;;;;;7.20;5.25;;;615.30;1715.20;;;;;;5093200;28;20027;-82
2021/07/26 02:03:51;;;;;;;9.63;5.60;;;615.30;1689.60;;;;;;5094668;28;20017;-77
2021/07/26 02:06:17;;;;;;;12.27;6.20;;;615.30;1689.60;;;;;;5093218;28;20517;-77
2021/07/26 02:08:43;;;;;;;10.23;5.90;;;640.00;1689.60;;;;;;5093000;28;20473;-82
2021/07/26 02:11:08;;;;;;;9.23;5.53;;;640.00;1664.00;;;;;;5092859;28;20069;-83
2021/07/26 02:13:35;;;;;;;9.10;4.70;;;640.00;1664.00;;;;;;5092952;28;20476;-77
2021/07/26 02:16:01;;;;;;;18.85;5.78;;;615.30;1664.00;;;;;;5092750;28;20020;-83
2021/07/26 02:18:26;;;;;;;11.43;5.47;;;615.30;1664.00;;;;;;5093082;28;20507;-78
2021/07/26 02:20:52;;;;;;;16.52;6.18;;;640.00;1664.00;;;;;;5092133;28;20027;-79
2021/07/26 02:23:18;;;;;;;12.68;5.47;;;640.00;1664.00;;;;;;5092938;28;20109;-76
2021/07/26 02:25:43;;;;;;;11.85;5.45;;;640.00;1638.40;;;;;;5090963;28;20465;-77
2021/07/26 02:28:09;;;;;;;12.45;5.35;;;640.00;1638.40;;;;;;5092795;28;20024;-79
2021/07/26 02:30:35;;;;;;;10.70;4.70;;;640.10;1612.80;;;;;;5091771;28;20034;-76
2021/07/26 02:33:01;;;;;;;6.63;5.07;;;640.20;1612.80;;;;;;5090281;28;20095;-77
2021/07/26 02:35:28;;;;;;;9.13;5.60;;;640.20;1587.20;;;;;;5091727;28;20107;-77
2021/07/26 02:37:54;;;;;;;17.38;5.20;;;640.20;1587.20;;;;;;5090812;28;20043;-77
2021/07/26 02:40:21;;;;;;;13.20;4.72;;;640.30;1561.60;;;;;;5089750;28;20110;-77
2021/07/26 02:42:46;;;;;;;13.18;5.35;;;640.40;1561.60;;;;;;5093792;28;20043;-79
2021/07/26 02:45:13;;;;;;;12.02;5.68;;;640.50;1561.60;;;;;;5094049;28;20484;-79
2021/07/26 02:47:41;;;;;;;9.00;5.13;;;640.50;1536.00;;;;;;5092683;28;20032;-81
2021/07/26 02:50:07;;;;;;;12.25;5.38;;;640.50;1536.00;;;;;;5091624;28;20043;-76
2021/07/26 02:52:34;;;;;;;13.82;5.82;;;640.60;1536.00;;;;;;5091507;28;20063;-76
2021/07/26 02:55:00;;;;;;;8.82;5.68;;;640.60;1510.40;;;;;;5092374;28;20014;-76
2021/07/26 02:57:25;;;;;;;10.18;4.78;;;640.70;1510.40;;;;;;5091016;28;20058;-76
2021/07/26 02:59:51;;;;;;;7.68;5.07;;;640.70;1510.40;;;;;;5091017;28;20034;-76
2021/07/26 03:02:17;;;;;;;13.40;5.70;;;640.70;1510.40;;;;;;5091137;28;20062;-76
2021/07/26 03:04:42;;;;;;;9.68;5.50;;;640.70;1510.40;;;;;;5091075;28;20016;-76
2021/07/26 03:07:08;;;;;;;9.98;5.68;;;640.80;1510.40;;;;;;5093139;28;20036;-76
2021/07/26 03:09:34;;;;;;;13.73;5.45;;;640.80;1510.40;;;;;;5092433;28;20020;-78
2021/07/26 03:11:59;;;;;;;10.32;5.22;;;640.80;1510.40;;;;;;5093543;28;20548;-79
2021/07/26 03:14:25;;;;;;;8.48;4.50;;;640.70;1536.00;;;;;;5092485;28;20053;-78
2021/07/26 03:16:51;;;;;;;11.63;4.80;;;640.60;1587.20;;;;;;5092068;28;20059;-78
2021/07/26 03:19:17;;;;;;;12.25;5.30;;;640.60;1561.60;;;;;;5092341;28;20024;-79
2021/07/26 03:21:42;;;;;;;9.40;5.07;;;640.60;1561.60;;;;;;5091688;28;20399;-78
2021/07/26 03:24:08;;;;;;;9.15;5.10;;;640.60;1536.00;;;;;;5092307;28;20111;-79
2021/07/26 03:26:34;;;;;;;11.13;5.13;;;640.60;1510.40;;;;;;5091958;28;20530;-79
2021/07/26 03:28:59;;;;;;;9.73;5.72;;;640.70;1510.40;;;;;;5095560;28;20496;-79
2021/07/26 03:31:25;;;;;;;14.07;5.85;;;640.70;1510.40;;;;;;5097450;28;20034;-80
2021/07/26 03:33:51;;;;;;;10.52;5.07;;;640.60;1510.40;;;;;;5097115;28;20111;-80
2021/07/26 03:36:16;;;;;;;8.25;4.80;;;640.60;1510.40;;;;;;5091977;28;20069;-79
2021/07/26 03:38:42;;;;;;;14.18;5.50;;;640.60;1510.40;;;;;;5092124;28;20118;-78
2021/07/26 03:41:08;;;;;;;7.78;4.57;;;640.60;1510.40;;;;;;5091749;28;20032;-77
2021/07/26 03:43:33;;;;;;;7.45;4.65;;;640.50;1510.40;;;;;;5091667;28;20020;-84
2021/07/26 03:45:59;;;;;;;6.68;4.90;;;640.50;1510.40;;;;;;5091910;28;20028;-78
2021/07/26 03:48:25;;;;;;;7.88;4.88;;;640.40;1510.40;;;;;;5092763;28;20080;-77
2021/07/26 03:50:51;;;;;;;6.00;4.47;;;640.40;1536.00;;;;;;5092921;28;20039;-77
2021/07/26 03:53:17;;;;;;;15.10;5.40;;;640.40;1536.00;;;;;;5090745;28;20094;-76
2021/07/26 03:55:43;;;;;;;9.23;5.35;;;640.40;1536.00;;;;;;5091649;28;20024;-77
2021/07/26 03:58:09;;;;;;;7.47;4.68;;;640.30;1536.00;;;;;;5092636;28;20043;-77
2021/07/26 04:00:35;;;;;;;9.07;4.90;;;640.40;1536.00;;;;;;5091363;28;20021;-77
2021/07/26 04:03:25;;;;;;;10.63;6.28;;;640.30;1561.60;;;;;;5093130;28;20028;-78
2021/07/26 04:06:03;;;;;;;6.50;4.75;;;640.40;1561.60;;;;;;5092145;28;20105;-77
2021/07/26 04:08:32;;;;;;;10.15;5.15;;;640.30;1561.60;;;;;;5091246;28;20048;-77
2021/07/26 04:11:10;;;;;;;10.63;5.53;;;640.30;1561.60;;;;;;5090214;28;20040;-78
2021/07/26 04:13:38;;;;;;;7.55;4.72;;;640.30;1561.60;;;;;;5092535;28;20469;-77
2021/07/26 04:16:04;;;;;;;8.07;5.35;;;640.20;1561.60;;;;;;5091437;28;20105;-77
2021/07/26 04:18:30;;;;;;;12.02;4.88;;;640.20;1587.20;;;;;;5091065;28;20066;-78
2021/07/26 04:20:56;;;;;;;8.27;5.43;;;640.20;1561.60;;;;;;5091293;28;20051;-78
2021/07/26 04:23:22;;;;;;;14.10;5.22;;;640.20;1587.20;;;;;;5092585;28;20520;-77
2021/07/26 04:25:48;;;;;;;9.70;4.55;;;640.10;1587.20;;;;;;5091241;28;20095;-77
2021/07/26 04:28:14;;;;;;;9.65;4.88;;;640.10;1587.20;;;;;;5091019;28;20027;-76
2021/07/26 04:30:40;;;;;;;13.68;5.68;;;640.10;1587.20;;;;;;5092412;28;20027;-76
2021/07/26 04:33:07;;;;;;;8.80;4.97;;;640.20;1612.80;;;;;;5092398;28;20024;-77
2021/07/26 04:35:33;;;;;;;8.38;4.55;;;640.20;1587.20;;;;;;5091186;28;20024;-77
2021/07/26 04:37:58;;;;;;;8.70;5.13;;;640.20;1587.20;;;;;;5091337;28;20028;-78
2021/07/26 04:40:24;;;;;;;13.80;6.50;;;640.20;1587.20;;;;;;5090952;28;20050;-78
2021/07/26 04:42:50;;;;;;;19.63;7.10;;;640.40;1587.20;;;;;;5090955;28;20080;-77
2021/07/26 04:45:15;;;;;;;10.18;6.15;;;640.40;1561.60;;;;;;5091223;28;20056;-79
2021/07/26 04:47:41;;;;;;;8.52;4.97;;;640.40;1561.60;;;;;;5091985;28;20112;-77
2021/07/26 04:50:08;;;;;;;13.68;5.32;;;640.40;1587.20;;;;;;5090950;28;20488;-76
2021/07/26 04:52:34;;;;;;;24.13;6.40;;;640.40;1587.20;;;;;;5092178;28;20568;-78
2021/07/26 04:55:00;;;;;;;23.65;6.93;;;640.40;1587.20;;;;;;5090915;28;20027;-77
2021/07/26 04:57:26;;;;;;;17.33;6.93;;;640.40;1587.20;;;;;;5090919;28;20024;-79
2021/07/26 04:59:52;;;;;;;9.88;5.20;;;640.40;1587.20;;;;;;5091697;28;20107;-81
2021/07/26 05:02:17;;;;;;;10.05;4.95;;;640.30;1561.60;;;;;;5095297;28;20016;-80
2021/07/26 05:04:43;;;;;;;15.10;5.60;;;640.40;1587.20;;;;;;5095004;28;20385;-77
2021/07/26 05:07:09;;;;;;;8.27;5.05;;;640.40;1561.60;;;;;;5095806;28;20085;-79
2021/07/26 05:09:38;;;;;;;9.55;5.13;;;640.40;1561.60;;;;;;5094706;28;20031;-75
2021/07/26 05:12:12;;;;;;;10.70;6.15;;;640.40;1561.60;;;;;;5094840;28;20016;-79
2021/07/26 05:14:47;;;;;;;10.45;5.95;;;640.40;1561.60;;;;;;5094077;28;20075;-77
2021/07/26 05:17:17;;;;;;;9.55;5.10;;;640.40;1561.60;;;;;;5095727;28;20055;-78
2021/07/26 05:19:42;;;;;;;9.15;4.88;;;640.40;1561.60;;;;;;5093542;28;20044;-83
2021/07/26 05:22:08;;;;;;;17.02;5.00;;;640.40;1587.20;;;;;;5095830;28;20370;-77
2021/07/26 05:24:34;;;;;;;9.35;4.30;;;640.40;1561.60;;;;;;5094369;28;20164;-77
2021/07/26 05:27:02;;;;;;;9.65;5.57;;;640.40;1561.60;;;;;;5094117;28;20557;-92
2021/07/26 05:29:29;;;;;;;7.20;5.18;;;640.50;1561.60;;;;;;5095747;28;20384;-91
2021/07/26 05:31:55;;;;;;;8.40;4.72;;;640.60;1561.60;;;;;;5096172;28;20103;-81
2021/07/26 05:34:21;;;;;;;8.15;4.68;;;640.60;1561.60;;;;;;5094845;28;20106;-89
2021/07/26 05:36:48;;;;;;;7.72;5.03;;;640.60;1561.60;;;;;;5095604;28;20515;-81
2021/07/26 05:39:13;;;;;;;15.27;6.03;;;640.70;1561.60;;;;;;5095846;28;20035;-77
2021/07/26 05:41:39;;;;;;;21.23;7.57;;;640.70;1561.60;;;;;;5095811;28;20016;-92
2021/07/26 05:44:05;;;;;;;14.55;9.95;;;640.70;1587.20;;;;;;5094222;28;20115;-77
2021/07/26 05:46:31;;;;;;;14.32;8.80;;;640.70;1612.80;;;;;;5094234;28;20099;-76
2021/07/26 05:48:57;;;;;;;15.05;7.75;;;640.70;1612.80;;;;;;5095202;28;20019;-91
2021/07/26 05:51:22;;;;;;;8.75;5.82;;;640.80;1587.20;;;;;;5095563;28;20149;-78
2021/07/26 05:53:48;;;;;;;7.95;5.68;;;665.60;1638.40;;;;;;5094442;28;20047;-90
2021/07/26 05:56:14;;;;;;;7.47;4.93;;;665.60;1638.40;;;;;;5094322;28;20042;-78
2021/07/26 05:58:48;;;;;;;6.97;5.45;;;665.70;1638.40;;;;;;5093543;28;20510;-77
2021/07/26 06:03:59;;;;;;;8.32;5.40;;;666.00;1638.40;;;;;;5094709;28;20135;-90
2021/07/26 06:06:24;;;;;;;12.23;5.88;;;666.10;1638.40;;;;;;5093446;28;20099;-78
2021/07/26 06:08:50;;;;;;;7.70;5.50;;;666.20;1638.40;;;;;;5094825;28;20044;-77
2021/07/26 06:11:17;;;;;;;12.00;5.47;;;666.30;1638.40;;;;;;5093598;28;20488;-77
2021/07/26 06:13:42;;;;;;;7.20;5.57;;;666.50;1587.20;;;;;;5093563;28;20016;-78
2021/07/26 06:16:08;;;;;;;7.93;5.22;;;691.20;1612.80;;;;;;5093424;28;20047;-80
2021/07/26 06:18:34;;;;;;;9.93;5.53;;;691.20;1587.20;;;;;;5093182;28;20086;-77
2021/07/26 06:21:06;;;;;;;6.72;5.00;;;691.20;1587.20;;;;;;5094700;28;20024;-78
2021/07/26 06:23:32;;;;;;;8.68;5.57;;;666.50;1587.20;;;;;;5094493;28;20051;-78
2021/07/26 06:25:57;;;;;;;9.35;5.28;;;666.30;1587.20;;;;;;5093528;28;20016;-79
2021/07/26 06:28:23;;;;;;;7.22;4.82;;;666.50;1587.20;;;;;;5094690;28;20385;-81
2021/07/26 06:30:49;;;;;;;8.77;5.70;;;666.50;1612.80;;;;;;5093171;28;20016;-88
2021/07/26 06:33:14;;;;;;;10.65;6.32;;;691.20;1587.20;;;;;;5093116;28;20023;-92
2021/07/26 06:35:40;;;;;;;11.82;6.10;;;691.30;1612.80;;;;;;5092918;28;20028;-88
2021/07/26 06:38:06;;;;;;;9.15;5.35;;;691.30;1587.20;;;;;;5094418;28;20039;-78
2021/07/26 06:40:33;;;;;;;19.15;6.55;;;691.30;1587.20;;;;;;5093222;28;20043;-77
2021/07/26 06:42:59;;;;;;;11.20;6.13;;;691.40;1561.60;;;;;;5094389;28;20027;-78
2021/07/26 06:45:26;;;;;;;15.48;6.05;;;691.60;1561.60;;;;;;5093243;28;20021;-89
2021/07/26 06:47:52;;;;;;;9.40;5.82;;;691.70;1561.60;;;;;;5092907;28;20081;-78
2021/07/26 06:50:18;;;;;;;9.13;5.80;;;691.80;1561.60;;;;;;5091659;28;20488;-89
2021/07/26 06:52:45;;;;;;;11.20;5.60;;;691.80;1536.00;;;;;;5092867;28;20024;-81
2021/07/26 06:55:11;;;;;;;9.18;5.65;;;691.90;1561.60;;;;;;5093918;28;20112;-78
2021/07/26 06:57:36;;;;;;;13.38;5.78;;;691.90;1510.40;;;;;;5092536;28;20153;-77
2021/07/26 07:00:04;;;;;;;10.82;5.57;;;691.90;1536.00;;;;;;5093629;28;20087;-77
2021/07/26 07:02:29;;;;;;;9.35;5.57;;;691.90;1536.00;;;;;;5093912;28;20032;-77
2021/07/26 07:04:55;;;;;;;7.30;4.60;;;692.10;1536.00;;;;;;5092608;28;20099;-78
2021/07/26 07:07:21;;;;;;;8.88;5.53;;;692.10;1536.00;;;;;;5093840;28;20408;-78
2021/07/26 07:09:47;;;;;;;9.60;5.47;;;692.10;1510.40;;;;;;5093907;28;20027;-79
2021/07/26 07:12:19;;;;;;;10.13;5.47;;;692.10;1536.00;;;;;;5096466;28;20035;-79
2021/07/26 07:14:45;;;;;;;8.40;5.85;;;716.90;1561.60;;;;;;5099691;28;20047;-81
2021/07/26 07:17:10;;;;;;;12.50;5.40;;;716.80;1561.60;;;;;;5092424;28;20881;-91
2021/07/26 07:19:43;;;;;;;10.45;6.07;;;716.90;1536.00;;;;;;5093239;28;20139;-80
2021/07/26 07:22:09;;;;;;;20.20;6.18;;;716.80;1510.40;;;;;;5093452;28;20008;-77
2021/07/26 07:24:35;;;;;;;13.85;5.82;;;716.90;1536.00;;;;;;5093498;28;20028;-83
2021/07/26 07:27:00;;;;;;;8.32;4.93;;;716.90;1536.00;;;;;;5093424;28;20485;-91
2021/07/26 07:29:26;;;;;;;10.88;5.53;;;716.90;1510.40;;;;;;5092807;28;20383;-87
2021/07/26 07:31:52;;;;;;;9.73;5.00;;;717.00;1484.80;;;;;;5092859;28;20024;-78
2021/07/26 07:34:17;;;;;;;9.93;5.43;;;716.80;1484.80;;;;;;5092807;28;20043;-80
2021/07/26 07:36:43;;;;;;;12.73;7.18;;;692.10;1484.80;;;;;;5091991;28;20078;-80
2021/07/26 07:39:10;;;;;;;10.60;5.20;;;692.10;1510.40;;;;;;5092006;28;20092;-90
2021/07/26 07:41:36;;;;;;;10.23;5.97;;;692.00;1484.80;;;;;;5091224;28;20549;-77
2021/07/26 07:44:02;;;;;;;8.90;5.30;;;692.10;1510.40;;;;;;5092625;28;20020;-77
2021/07/26 07:46:28;;;;;;;8.73;5.20;;;717.00;1561.60;;;;;;5085955;28;20492;-78
2021/07/26 07:48:54;;;;;;;9.13;5.18;;;717.10;1536.00;;;;;;5091477;28;20024;-78
2021/07/26 07:51:23;;;;;;;8.68;5.13;;;717.20;1510.40;;;;;;5092467;28;20043;-79
2021/07/26 07:53:51;;;;;;;14.57;5.57;;;717.30;1510.40;;;;;;5088060;28;20035;-79
2021/07/26 07:56:17;;;;;;;9.93;4.88;;;717.40;1484.80;;;;;;5090813;28;20020;-79
2021/07/26 07:58:43;;;;;;;9.05;5.13;;;717.50;1510.40;;;;;;5091265;28;20516;-83
2021/07/26 08:01:09;;;;;;;10.38;5.97;;;717.50;1510.40;;;;;;5091614;28;20024;-80
2021/07/26 08:03:34;;;;;;;9.73;5.30;;;717.70;1510.40;;;;;;5089244;28;20124;-79
2021/07/26 08:06:01;;;;;;;11.43;6.15;;;717.70;1459.20;;;;;;5091350;28;20024;-85
2021/07/26 08:08:28;;;;;;;10.32;5.40;;;717.70;1459.20;;;;;;5092635;28;20040;-77
2021/07/26 08:10:54;;;;;;;12.77;5.50;;;717.70;1459.20;;;;;;5089169;28;20036;-80
2021/07/26 08:13:24;;;;;;;12.55;5.45;;;717.60;1433.60;;;;;;5091589;28;20040;-89
2021/07/26 08:15:51;;;;;;;9.18;5.18;;;717.50;1459.20;;;;;;5093067;28;20450;-78
2021/07/26 08:18:18;;;;;;;10.30;5.20;;;717.40;1459.20;;;;;;5090124;28;20036;-77
2021/07/26 08:20:44;;;;;;;9.30;5.25;;;717.40;1459.20;;;;;;5090736;28;20549;-76
2021/07/26 08:23:10;;;;;;;11.32;5.30;;;717.50;1510.40;;;;;;5091401;28;20107;-80
2021/07/26 08:25:36;;;;;;;10.88;4.95;;;717.60;1484.80;;;;;;5089832;28;20123;-81
2021/07/26 08:28:02;;;;;;;8.63;5.65;;;742.40;1536.00;;;;;;5088634;28;20104;-84
2021/07/26 08:30:30;;;;;;;12.77;5.70;;;742.60;1484.80;;;;;;5090385;28;20036;-76
2021/07/26 08:32:57;;;;;;;10.63;5.03;;;742.60;1484.80;;;;;;5092042;28;20033;-79
2021/07/26 08:35:24;;;;;;;9.95;5.53;;;742.60;1459.20;;;;;;5092210;28;20053;-77
2021/07/26 08:37:51;;;;;;;9.18;5.40;;;742.80;1484.80;;;;;;5095762;28;20078;-76
2021/07/26 08:40:20;;;;;;;8.68;6.30;;;743.00;1510.40;;;;;;5094437;28;20032;-82
2021/07/26 08:42:46;;;;;;;16.67;6.18;;;743.00;1484.80;;;;;;5091826;28;20028;-83
2021/07/26 08:45:12;;;;;;;11.68;6.00;;;742.80;1484.80;;;;;;5096411;28;20102;-78
2021/07/26 08:47:43;;;;;;;13.38;6.45;;;742.90;1510.40;;;;;;5093132;28;20397;-82
2021/07/26 08:50:12;;;;;;;14.70;5.82;;;743.00;1536.00;;;;;;5094973;28;20024;-77
2021/07/26 08:52:43;;;;;;;13.05;6.07;;;743.00;1484.80;;;;;;5093311;28;20107;-80
2021/07/26 08:55:14;;;;;;;7.68;5.95;;;743.10;1484.80;;;;;;5095527;28;20034;-80
2021/07/26 08:57:42;;;;;;;8.95;6.20;;;768.10;1484.80;;;;;;5094865;28;20036;-82
2021/07/26 09:00:09;;;;;;;10.07;6.68;;;768.10;1484.80;;;;;;5094500;28;20485;-80
2021/07/26 09:02:35;;;;;;;9.82;5.88;;;768.20;1459.20;;;;;;5095167;28;20499;-77
2021/07/26 09:05:00;;;;;;;11.10;6.03;;;768.30;1536.00;;;;;;5094676;28;20034;-79
2021/07/26 09:07:27;;;;;;;15.25;6.53;;;768.10;1510.40;;;;;;5093411;28;20051;-76
2021/07/26 09:09:53;;;;;;;14.27;7.45;;;768.20;1510.40;;;;;;5096714;28;20095;-86
2021/07/26 09:12:46;;;;;;;12.75;6.07;;;768.30;1536.00;;;;;;5092197;28;20020;-87
2021/07/26 09:15:43;;;;;;;12.30;7.03;;;768.10;1510.40;;;;;;5076014;28;20021;-91
2021/07/26 09:18:10;;;;;;;11.80;6.55;;;768.10;1536.00;;;;;;5090589;28;20119;-89
2021/07/26 09:20:41;;;;;;;10.95;7.15;;;768.80;1536.00;;;;;;5096796;28;20097;-87
2021/07/26 09:23:16;;;;;;;13.38;6.70;;;768.20;1484.80;;;;;;5095361;28;20063;-79
2021/07/26 09:25:44;;;;;;;12.50;6.38;;;768.10;1510.40;;;;;;5091873;28;20036;-78
2021/07/26 09:28:09;;;;;;;9.98;6.68;;;768.10;1536.00;;;;;;5095394;28;20032;-78
2021/07/26 09:30:36;;;;;;;14.02;6.60;;;743.30;1561.60;;;;;;5093196;28;20077;-80
2021/07/26 09:33:03;;;;;;;15.98;7.10;;;768.40;1536.00;;;;;;5094087;28;20055;-78
2021/07/26 09:35:29;;;;;;;11.75;6.95;;;768.40;1536.00;;;;;;5094288;28;20024;-82
2021/07/26 09:38:00;;;;;;;10.80;6.80;;;768.70;1510.40;;;;;;5079672;28;20482;-79
2021/07/26 09:40:32;;;;;;;13.95;7.60;;;768.90;1484.80;;;;;;5091697;28;20023;-80
2021/07/26 09:43:16;;;;;;;12.50;6.97;;;793.60;1510.40;;;;;;5095003;28;20105;-78
2021/07/26 09:45:42;;;;;;;14.30;10.68;;;793.70;1536.00;;;;;;5084732;28;20533;-83
2021/07/26 09:48:09;;;;;;;9.98;7.00;;;793.70;1510.40;;;;;;5094513;28;20135;-84
2021/07/26 09:50:43;;;;;;;9.07;6.65;;;793.70;1510.40;;;;;;5095453;28;20109;-82
2021/07/26 09:53:22;;;;;;;8.68;6.07;;;793.70;1510.40;;;;;;5094816;28;20042;-83
2021/07/26 09:55:53;;;;;;;15.10;6.88;;;794.00;1484.80;;;;;;5091255;28;20028;-83
2021/07/26 09:58:34;;;;;;;11.40;6.55;;;794.20;1510.40;;;;;;5095387;28;20054;-80
2021/07/26 10:01:00;;;;;;;11.60;6.80;;;794.30;1484.80;;;;;;5092175;28;20051;-80
2021/07/26 10:03:27;;;;;;;11.48;6.90;;;794.50;1484.80;;;;;;5093791;28;20031;-81
2021/07/26 10:05:54;;;;;;;12.93;6.72;;;819.20;1484.80;;;;;;5093557;28;20118;-80
2021/07/26 10:08:28;;;;;;;9.10;6.75;;;794.50;1459.20;;;;;;5092806;28;20040;-79
2021/07/26 10:10:54;;;;;;;13.02;7.45;;;794.50;1484.80;;;;;;5095553;28;20074;-83
2021/07/26 10:13:21;;;;;;;13.20;8.07;;;819.20;1484.80;;;;;;5092651;28;20027;-79
2021/07/26 10:15:49;;;;;;;11.88;7.35;;;819.90;1484.80;;;;;;5088732;28;20064;-78
2021/07/26 10:18:15;;;;;;;11.13;6.57;;;819.70;1484.80;;;;;;5088720;28;20036;-81
2021/07/26 10:21:01;;;;;;;10.40;7.07;;;819.80;1459.20;;;;;;5093818;28;20121;-79
2021/07/26 10:23:31;;;;;;;13.23;8.05;;;819.80;1459.20;;;;;;5091031;28;20024;-80
2021/07/26 10:26:04;;;;;;;11.32;6.32;;;820.00;1459.20;;;;;;5093207;28;20024;-80
2021/07/26 10:28:34;;;;;;;9.43;6.68;;;820.10;1433.60;;;;;;5093370;28;20028;-83
2021/07/26 10:31:00;;;;;;;14.98;7.18;;;844.90;1484.80;;;;;;5093229;28;20016;-84
2021/07/26 10:33:29;;;;;;;14.05;7.35;;;845.20;1433.60;;;;;;5093046;28;20111;-80
2021/07/26 10:35:55;;;;;;;11.40;7.45;;;844.90;1408.00;;;;;;5090432;28;20445;-86
2021/07/26 10:38:43;;;;;;;11.77;7.20;;;844.80;1459.20;;;;;;5091085;28;20079;-79
2021/07/26 10:41:09;;;;;;;15.18;7.28;;;819.80;1382.40;;;;;;5090809;28;20504;-84
2021/07/26 10:43:55;;;;;;;10.93;6.85;;;819.80;1382.40;;;;;;5093927;28;20054;-85
2021/07/26 10:46:21;;;;;;;10.77;7.13;;;819.60;1433.60;;;;;;5091968;28;20032;-80
2021/07/26 10:48:53;;;;;;;11.00;7.10;;;819.80;1433.60;;;;;;5092480;28;20024;-79
2021/07/26 10:51:39;;;;;;;12.77;7.03;;;819.70;1459.20;;;;;;5093649;28;20024;-80
2021/07/26 10:54:08;;;;;;;14.05;7.28;;;819.80;1459.20;;;;;;5089518;28;20107;-79
2021/07/26 10:57:07;;;;;;;14.38;8.15;;;819.80;1433.60;;;;;;5090468;28;20124;-80
2021/07/26 11:00:07;;;;;;;12.98;7.05;;;819.70;1433.60;;;;;;4999040;28;20037;-85
2021/07/26 11:04:58;;;;;;;14.55;7.05;;;819.70;1433.60;;;;;;5299995;23;20200;-81
2021/07/26 11:07:28;;;;;;;9.52;7.20;;;819.70;1433.60;;;;;;5043849;28;20037;-81
2021/07/26 11:09:55;;;;;;;15.85;7.78;;;819.60;1459.20;;;;;;5033381;28;20104;-78
2021/07/26 11:15:49;;;;;;;10.02;7.20;;;819.50;1459.20;;;;;;5266943;23;20053;-82
2021/07/26 11:18:39;;;;;;;12.55;7.65;;;819.40;1484.80;;;;;;5007154;28;20034;-81
2021/07/26 11:21:16;;;;;;;10.48;8.02;;;819.40;1459.20;;;;;;4994433;28;20088;-82
2021/07/26 11:23:47;;;;;;;11.73;8.07;;;819.50;1484.80;;;;;;5010372;28;20105;-82
2021/07/26 11:26:34;;;;;;;14.30;7.47;;;820.00;1433.60;;;;;;5010186;28;20038;-80
2021/07/26 11:29:02;;;;;;;9.80;6.95;;;845.30;1382.40;;;;;;5167812;23;20050;-89
2021/07/26 11:31:34;;;;;;;9.43;6.88;;;870.80;1331.20;;;;;;5010283;28;20534;-85
2021/07/26 11:34:10;;;;;;;10.20;6.93;;;896.40;1280.00;;;;;;5012289;28;20125;-80
2021/07/26 11:37:15;;;;;;;13.68;8.38;;;896.70;1228.80;;;;;;5011450;28;20026;-79
2021/07/26 11:40:03;;;;;;;11.98;7.35;;;896.20;1228.80;;;;;;4935194;28;20027;-79
2021/07/26 11:42:57;;;;;;;12.15;7.07;;;896.70;1228.80;;;;;;4935575;28;20134;-81
2021/07/26 11:45:23;;;;;;;13.32;8.27;;;921.70;1203.20;;;;;;4949315;28;20039;-92
2021/07/26 11:47:49;;;;;;;8.43;6.45;;;922.10;1177.60;;;;;;4931615;29;20027;-78
2021/07/26 11:54:06;;;;;;;14.07;7.35;;;922.20;1203.20;;;;;;5229880;23;20100;-81
2021/07/26 11:56:33;;;;;;;10.85;7.50;;;922.40;1203.20;;;;;;5002034;28;20119;-82
2021/07/26 11:59:22;;;;;;;13.35;6.60;;;947.30;1177.60;;;;;;5001871;28;20573;-82
2021/07/26 12:01:56;;;;;;;16.10;7.32;;;922.30;1203.20;;;;;;5005376;28;20030;-82
2021/07/26 12:04:26;;;;;;;10.23;6.75;;;922.40;1203.20;;;;;;5011620;28;20025;-84
2021/07/26 12:07:02;;;;;;;12.65;7.35;;;922.00;1203.20;;;;;;5008830;28;20030;-80
2021/07/26 12:09:30;;;;;;;13.73;7.47;;;922.20;1228.80;;;;;;5002520;28;20487;-90
2021/07/26 12:12:13;;;;;;;9.68;6.85;;;922.00;1228.80;;;;;;5005910;28;20037;-85
2021/07/26 12:14:43;;;;;;;12.07;7.05;;;922.10;1228.80;;;;;;5008269;28;20022;-90
2021/07/26 12:17:23;;;;;;;12.90;7.60;;;922.20;1177.60;;;;;;5001654;28;20034;-82
2021/07/26 12:20:03;;;;;;;9.52;7.13;;;922.00;1203.20;;;;;;5006316;28;20037;-87
2021/07/26 12:22:42;;;;;;;10.05;7.28;;;922.10;1228.80;;;;;;5020896;28;20045;-82
2021/07/26 12:25:22;;;;;;;12.32;7.85;;;922.30;1203.20;;;;;;5013126;28;20029;-86
2021/07/26 12:27:55;;;;;;;10.40;6.65;;;922.00;1228.80;;;;;;5006852;28;20032;-83
2021/07/26 12:30:21;;;;;;;13.15;7.40;;;922.20;1203.20;;;;;;5004463;28;20030;-84